sensor_id;sensor_type;location;lat;lon;timestamp;temperature;humidity
41457;DHT22;27197;51.752;5.220;2023-08-08T00:00:10;19.80;74.60
41457;DHT22;27197;51.752;5.220;2023-08-08T00:02:45;19.70;71.50
41457;DHT22;27197;51.752;5.220;2023-08-08T00:05:16;19.60;74.60
41457;DHT22;27197;51.752;5.220;2023-08-08T00:07:51;19.60;75.30
41457;DHT22;27197;51.752;5.220;2023-08-08T00:10:20;19.60;74.50
41457;DHT22;27197;51.752;5.220;2023-08-08T00:12:50;19.60;74.50
41457;DHT22;27197;51.752;5.220;2023-08-08T00:15:20;19.60;74.30
41457;DHT22;27197;51.752;5.220;2023-08-08T00:17:53;19.60;72.50
41457;DHT22;27197;51.752;5.220;2023-08-08T00:25:46;19.70;74.20
41457;DHT22;27197;51.752;5.220;2023-08-08T00:28:17;19.70;71.90
41457;DHT22;27197;51.752;5.220;2023-08-08T00:30:47;19.60;72.70
41457;DHT22;27197;51.752;5.220;2023-08-08T00:33:17;19.80;75.10
41457;DHT22;27197;51.752;5.220;2023-08-08T00:35:47;19.90;74.20
41457;DHT22;27197;51.752;5.220;2023-08-08T00:38:19;19.80;72.20
41457;DHT22;27197;51.752;5.220;2023-08-08T00:40:49;19.70;73.20
41457;DHT22;27197;51.752;5.220;2023-08-08T00:43:19;19.70;74.60
41457;DHT22;27197;51.752;5.220;2023-08-08T00:45:52;19.80;74.60
41457;DHT22;27197;51.752;5.220;2023-08-08T00:48:22;19.80;73.40
41457;DHT22;27197;51.752;5.220;2023-08-08T00:50:52;19.80;72.50
41457;DHT22;27197;51.752;5.220;2023-08-08T00:53:23;19.80;73.90
41457;DHT22;27197;51.752;5.220;2023-08-08T00:55:55;19.80;74.20
41457;DHT22;27197;51.752;5.220;2023-08-08T00:58:28;19.90;74.70
41457;DHT22;27197;51.752;5.220;2023-08-08T01:00:56;19.90;73.30
41457;DHT22;27197;51.752;5.220;2023-08-08T01:03:26;20.00;74.00
41457;DHT22;27197;51.752;5.220;2023-08-08T01:06:03;19.80;74.60
41457;DHT22;27197;51.752;5.220;2023-08-08T01:08:36;19.70;73.60
41457;DHT22;27197;51.752;5.220;2023-08-08T01:11:07;19.70;74.50
41457;DHT22;27197;51.752;5.220;2023-08-08T01:13:40;19.70;75.40
41457;DHT22;27197;51.752;5.220;2023-08-08T01:16:13;19.70;74.00
41457;DHT22;27197;51.752;5.220;2023-08-08T01:18:47;19.70;75.20
41457;DHT22;27197;51.752;5.220;2023-08-08T01:21:21;19.70;74.30
41457;DHT22;27197;51.752;5.220;2023-08-08T01:24:19;19.60;75.50
41457;DHT22;27197;51.752;5.220;2023-08-08T01:26:34;19.70;75.50
41457;DHT22;27197;51.752;5.220;2023-08-08T01:29:04;19.80;75.50
41457;DHT22;27197;51.752;5.220;2023-08-08T01:31:35;19.90;74.90
41457;DHT22;27197;51.752;5.220;2023-08-08T01:34:05;20.00;74.30
41457;DHT22;27197;51.752;5.220;2023-08-08T01:36:39;19.80;74.70
41457;DHT22;27197;51.752;5.220;2023-08-08T01:39:10;19.70;75.40
41457;DHT22;27197;51.752;5.220;2023-08-08T01:41:39;19.90;75.40
41457;DHT22;27197;51.752;5.220;2023-08-08T01:44:12;20.00;75.20
41457;DHT22;27197;51.752;5.220;2023-08-08T01:46:43;20.10;74.90
41457;DHT22;27197;51.752;5.220;2023-08-08T01:49:13;20.10;73.50
41457;DHT22;27197;51.752;5.220;2023-08-08T01:51:43;19.80;74.70
41457;DHT22;27197;51.752;5.220;2023-08-08T01:54:13;19.60;74.50
41457;DHT22;27197;51.752;5.220;2023-08-08T01:56:43;19.60;76.20
41457;DHT22;27197;51.752;5.220;2023-08-08T01:59:15;19.60;74.70
41457;DHT22;27197;51.752;5.220;2023-08-08T02:01:46;19.60;76.50
41457;DHT22;27197;51.752;5.220;2023-08-08T02:04:15;19.40;76.80
41457;DHT22;27197;51.752;5.220;2023-08-08T02:06:46;19.40;76.20
41457;DHT22;27197;51.752;5.220;2023-08-08T02:09:34;19.20;77.60
41457;DHT22;27197;51.752;5.220;2023-08-08T02:12:05;19.20;77.40
41457;DHT22;27197;51.752;5.220;2023-08-08T02:14:34;19.10;78.80
41457;DHT22;27197;51.752;5.220;2023-08-08T02:17:03;19.10;78.30
41457;DHT22;27197;51.752;5.220;2023-08-08T02:19:36;19.10;78.50
41457;DHT22;27197;51.752;5.220;2023-08-08T02:22:05;19.20;78.70
41457;DHT22;27197;51.752;5.220;2023-08-08T02:24:36;19.20;77.80
41457;DHT22;27197;51.752;5.220;2023-08-08T02:27:10;19.20;78.10
41457;DHT22;27197;51.752;5.220;2023-08-08T02:29:39;19.40;77.10
41457;DHT22;27197;51.752;5.220;2023-08-08T02:32:10;19.40;76.50
41457;DHT22;27197;51.752;5.220;2023-08-08T02:34:43;19.40;77.50
41457;DHT22;27197;51.752;5.220;2023-08-08T02:37:13;19.50;77.10
41457;DHT22;27197;51.752;5.220;2023-08-08T02:39:44;19.50;77.40
41457;DHT22;27197;51.752;5.220;2023-08-08T02:42:15;19.40;77.70
41457;DHT22;27197;51.752;5.220;2023-08-08T02:44:48;19.30;77.20
41457;DHT22;27197;51.752;5.220;2023-08-08T02:47:17;19.40;78.20
41457;DHT22;27197;51.752;5.220;2023-08-08T02:49:48;19.40;76.80
41457;DHT22;27197;51.752;5.220;2023-08-08T02:52:20;19.30;77.50
41457;DHT22;27197;51.752;5.220;2023-08-08T02:54:55;19.40;77.90
41457;DHT22;27197;51.752;5.220;2023-08-08T02:57:23;19.50;77.40
41457;DHT22;27197;51.752;5.220;2023-08-08T02:59:54;19.60;75.90
41457;DHT22;27197;51.752;5.220;2023-08-08T03:02:24;19.70;76.90
41457;DHT22;27197;51.752;5.220;2023-08-08T03:04:52;19.70;75.30
41457;DHT22;27197;51.752;5.220;2023-08-08T03:07:23;19.50;76.90
41457;DHT22;27197;51.752;5.220;2023-08-08T03:09:56;19.60;76.30
41457;DHT22;27197;51.752;5.220;2023-08-08T03:12:47;19.50;77.50
41457;DHT22;27197;51.752;5.220;2023-08-08T03:15:16;19.40;77.50
41457;DHT22;27197;51.752;5.220;2023-08-08T03:17:47;19.40;77.50
41457;DHT22;27197;51.752;5.220;2023-08-08T03:20:16;19.40;78.00
41457;DHT22;27197;51.752;5.220;2023-08-08T03:22:44;19.40;76.00
41457;DHT22;27197;51.752;5.220;2023-08-08T03:28:04;19.50;77.80
41457;DHT22;27197;51.752;5.220;2023-08-08T03:30:38;19.70;77.00
41457;DHT22;27197;51.752;5.220;2023-08-08T03:33:07;19.60;76.60
41457;DHT22;27197;51.752;5.220;2023-08-08T03:35:41;19.60;77.20
41457;DHT22;27197;51.752;5.220;2023-08-08T03:38:11;19.70;77.00
41457;DHT22;27197;51.752;5.220;2023-08-08T03:40:40;19.70;75.40
41457;DHT22;27197;51.752;5.220;2023-08-08T03:43:14;19.50;76.60
41457;DHT22;27197;51.752;5.220;2023-08-08T03:56:22;19.60;77.20
41457;DHT22;27197;51.752;5.220;2023-08-08T03:58:56;19.60;77.20
41457;DHT22;27197;51.752;5.220;2023-08-08T04:01:26;19.50;75.60
41457;DHT22;27197;51.752;5.220;2023-08-08T04:03:56;19.30;77.10
41457;DHT22;27197;51.752;5.220;2023-08-08T04:06:28;19.30;76.70
41457;DHT22;27197;51.752;5.220;2023-08-08T04:08:59;19.30;77.10
41457;DHT22;27197;51.752;5.220;2023-08-08T04:11:33;19.40;78.20
41457;DHT22;27197;51.752;5.220;2023-08-08T04:14:03;19.30;76.50
41457;DHT22;27197;51.752;5.220;2023-08-08T04:16:35;19.10;76.90
41457;DHT22;27197;51.752;5.220;2023-08-08T04:19:09;18.90;78.30
41457;DHT22;27197;51.752;5.220;2023-08-08T04:21:40;18.90;80.00
41457;DHT22;27197;51.752;5.220;2023-08-08T04:24:11;19.00;79.50
41457;DHT22;27197;51.752;5.220;2023-08-08T04:26:41;19.10;79.40
41457;DHT22;27197;51.752;5.220;2023-08-08T04:29:11;19.20;78.80
41457;DHT22;27197;51.752;5.220;2023-08-08T04:31:44;19.30;78.30
41457;DHT22;27197;51.752;5.220;2023-08-08T04:34:12;19.20;79.00
41457;DHT22;27197;51.752;5.220;2023-08-08T04:36:44;19.30;77.70
41457;DHT22;27197;51.752;5.220;2023-08-08T04:39:16;19.40;78.30
41457;DHT22;27197;51.752;5.220;2023-08-08T04:41:50;19.30;78.20
41457;DHT22;27197;51.752;5.220;2023-08-08T04:44:24;19.40;77.60
41457;DHT22;27197;51.752;5.220;2023-08-08T04:46:52;19.20;78.40
41457;DHT22;27197;51.752;5.220;2023-08-08T04:49:23;19.30;78.60
41457;DHT22;27197;51.752;5.220;2023-08-08T04:51:57;19.30;78.40
41457;DHT22;27197;51.752;5.220;2023-08-08T04:54:25;19.20;78.60
41457;DHT22;27197;51.752;5.220;2023-08-08T04:56:55;19.30;78.30
41457;DHT22;27197;51.752;5.220;2023-08-08T04:59:28;19.30;78.50
41457;DHT22;27197;51.752;5.220;2023-08-08T05:01:59;19.30;78.80
41457;DHT22;27197;51.752;5.220;2023-08-08T05:04:26;19.30;78.10
41457;DHT22;27197;51.752;5.220;2023-08-08T05:06:54;19.20;78.80
41457;DHT22;27197;51.752;5.220;2023-08-08T05:09:25;19.30;78.10
41457;DHT22;27197;51.752;5.220;2023-08-08T05:11:57;19.40;78.20
41457;DHT22;27197;51.752;5.220;2023-08-08T05:14:27;19.40;77.90
41457;DHT22;27197;51.752;5.220;2023-08-08T05:16:56;19.30;77.20
41457;DHT22;27197;51.752;5.220;2023-08-08T05:19:26;19.20;79.10
41457;DHT22;27197;51.752;5.220;2023-08-08T05:21:54;19.10;78.80
41457;DHT22;27197;51.752;5.220;2023-08-08T05:24:23;19.20;78.60
41457;DHT22;27197;51.752;5.220;2023-08-08T05:26:57;19.40;77.90
41457;DHT22;27197;51.752;5.220;2023-08-08T05:29:25;19.20;78.70
41457;DHT22;27197;51.752;5.220;2023-08-08T05:31:59;19.20;78.80
41457;DHT22;27197;51.752;5.220;2023-08-08T05:34:28;19.30;77.30
41457;DHT22;27197;51.752;5.220;2023-08-08T05:36:59;19.10;79.50
41457;DHT22;27197;51.752;5.220;2023-08-08T05:39:31;19.20;77.90
41457;DHT22;27197;51.752;5.220;2023-08-08T05:42:03;19.20;77.90
41457;DHT22;27197;51.752;5.220;2023-08-08T05:44:34;19.10;79.10
41457;DHT22;27197;51.752;5.220;2023-08-08T05:47:07;19.30;78.30
41457;DHT22;27197;51.752;5.220;2023-08-08T05:49:38;19.20;78.40
41457;DHT22;27197;51.752;5.220;2023-08-08T05:52:12;19.20;79.50
41457;DHT22;27197;51.752;5.220;2023-08-08T05:54:41;19.30;79.00
41457;DHT22;27197;51.752;5.220;2023-08-08T05:57:11;19.40;78.30
41457;DHT22;27197;51.752;5.220;2023-08-08T05:59:42;19.30;78.80
41457;DHT22;27197;51.752;5.220;2023-08-08T06:02:11;19.30;78.60
41457;DHT22;27197;51.752;5.220;2023-08-08T06:04:41;19.20;78.20
41457;DHT22;27197;51.752;5.220;2023-08-08T06:07:12;19.20;79.10
41457;DHT22;27197;51.752;5.220;2023-08-08T06:09:41;19.30;78.70
41457;DHT22;27197;51.752;5.220;2023-08-08T06:12:10;19.30;78.60
41457;DHT22;27197;51.752;5.220;2023-08-08T06:14:41;19.40;78.50
41457;DHT22;27197;51.752;5.220;2023-08-08T06:17:12;19.40;77.90
41457;DHT22;27197;51.752;5.220;2023-08-08T06:19:45;19.40;78.10
41457;DHT22;27197;51.752;5.220;2023-08-08T06:22:14;19.30;78.10
41457;DHT22;27197;51.752;5.220;2023-08-08T06:24:44;19.30;78.40
41457;DHT22;27197;51.752;5.220;2023-08-08T06:27:14;19.40;78.10
41457;DHT22;27197;51.752;5.220;2023-08-08T06:29:47;19.40;78.10
41457;DHT22;27197;51.752;5.220;2023-08-08T06:32:21;19.40;78.40
41457;DHT22;27197;51.752;5.220;2023-08-08T06:34:50;19.40;78.10
41457;DHT22;27197;51.752;5.220;2023-08-08T06:37:20;19.50;77.50
41457;DHT22;27197;51.752;5.220;2023-08-08T06:39:50;19.30;78.20
41457;DHT22;27197;51.752;5.220;2023-08-08T06:42:17;19.30;78.50
41457;DHT22;27197;51.752;5.220;2023-08-08T06:44:52;19.40;77.80
41457;DHT22;27197;51.752;5.220;2023-08-08T06:47:20;19.40;78.20
41457;DHT22;27197;51.752;5.220;2023-08-08T06:49:52;19.60;77.80
41457;DHT22;27197;51.752;5.220;2023-08-08T06:52:26;19.50;77.80
41457;DHT22;27197;51.752;5.220;2023-08-08T06:54:55;19.50;77.20
41457;DHT22;27197;51.752;5.220;2023-08-08T06:57:23;19.50;77.80
41457;DHT22;27197;51.752;5.220;2023-08-08T06:59:55;19.40;77.60
41457;DHT22;27197;51.752;5.220;2023-08-08T07:02:28;19.40;78.20
41457;DHT22;27197;51.752;5.220;2023-08-08T07:04:57;19.40;78.40
41457;DHT22;27197;51.752;5.220;2023-08-08T07:07:27;19.50;77.70
41457;DHT22;27197;51.752;5.220;2023-08-08T07:09:59;19.60;78.10
41457;DHT22;27197;51.752;5.220;2023-08-08T07:12:28;19.60;77.40
41457;DHT22;27197;51.752;5.220;2023-08-08T07:14:58;19.60;77.60
41457;DHT22;27197;51.752;5.220;2023-08-08T07:17:30;19.60;77.40
41457;DHT22;27197;51.752;5.220;2023-08-08T07:20:00;19.70;77.20
41457;DHT22;27197;51.752;5.220;2023-08-08T07:22:30;19.70;76.60
41457;DHT22;27197;51.752;5.220;2023-08-08T07:25:00;19.60;77.00
41457;DHT22;27197;51.752;5.220;2023-08-08T07:27:31;19.60;76.80
41457;DHT22;27197;51.752;5.220;2023-08-08T07:30:02;19.60;77.90
41457;DHT22;27197;51.752;5.220;2023-08-08T07:32:36;19.70;77.10
41457;DHT22;27197;51.752;5.220;2023-08-08T07:35:06;19.70;76.90
41457;DHT22;27197;51.752;5.220;2023-08-08T07:37:37;19.80;76.30
41457;DHT22;27197;51.752;5.220;2023-08-08T07:40:13;19.80;76.70
41457;DHT22;27197;51.752;5.220;2023-08-08T07:42:48;19.70;77.00
41457;DHT22;27197;51.752;5.220;2023-08-08T07:45:19;19.70;76.70
41457;DHT22;27197;51.752;5.220;2023-08-08T07:47:53;19.70;76.40
41457;DHT22;27197;51.752;5.220;2023-08-08T07:50:24;19.70;76.50
41457;DHT22;27197;51.752;5.220;2023-08-08T07:52:53;19.70;76.10
41457;DHT22;27197;51.752;5.220;2023-08-08T07:55:25;19.70;76.20
41457;DHT22;27197;51.752;5.220;2023-08-08T07:57:55;19.80;76.20
41457;DHT22;27197;51.752;5.220;2023-08-08T08:00:25;19.80;75.50
41457;DHT22;27197;51.752;5.220;2023-08-08T08:02:54;19.80;75.60
41457;DHT22;27197;51.752;5.220;2023-08-08T08:05:25;19.80;75.90
41457;DHT22;27197;51.752;5.220;2023-08-08T08:07:56;19.80;75.30
41457;DHT22;27197;51.752;5.220;2023-08-08T08:10:25;19.80;75.30
41457;DHT22;27197;51.752;5.220;2023-08-08T08:12:54;19.90;75.10
41457;DHT22;27197;51.752;5.220;2023-08-08T08:15:26;19.80;75.30
41457;DHT22;27197;51.752;5.220;2023-08-08T08:17:56;19.90;75.50
41457;DHT22;27197;51.752;5.220;2023-08-08T08:20:26;19.90;75.20
41457;DHT22;27197;51.752;5.220;2023-08-08T08:22:58;19.90;74.00
41457;DHT22;27197;51.752;5.220;2023-08-08T08:25:29;19.90;73.80
41457;DHT22;27197;51.752;5.220;2023-08-08T16:01:10;20.90;70.90
41457;DHT22;27197;51.752;5.220;2023-08-08T16:03:41;21.00;70.50
41457;DHT22;27197;51.752;5.220;2023-08-08T16:06:15;21.00;70.20
41457;DHT22;27197;51.752;5.220;2023-08-08T16:08:43;21.00;70.40
